sensor_id;sensor_type;location;lat;lon;timestamp;P1;durP1;ratioP1;P2;durP2;ratioP2
51523;SDS011;37610;51.790;21.590;2022-10-16T00:02:54;26.30;;;16.20;;
51523;SDS011;37610;51.790;21.590;2022-10-16T00:06:56;25.00;;;16.20;;
51523;SDS011;37610;51.790;21.590;2022-10-16T00:15:10;29.90;;;17.40;;
51523;SDS011;37610;51.790;21.590;2022-10-16T00:19:11;22.10;;;16.80;;
51523;SDS011;37610;51.790;21.590;2022-10-16T00:23:13;23.30;;;14.70;;
51523;SDS011;37610;51.790;21.590;2022-10-16T00:27:14;24.40;;;14.60;;
51523;SDS011;37610;51.790;21.590;2022-10-16T00:31:16;23.80;;;15.50;;
51523;SDS011;37610;51.790;21.590;2022-10-16T00:35:20;24.90;;;14.80;;
51523;SDS011;37610;51.790;21.590;2022-10-16T00:39:21;23.40;;;14.00;;
51523;SDS011;37610;51.790;21.590;2022-10-16T00:47:34;24.20;;;14.80;;
51523;SDS011;37610;51.790;21.590;2022-10-16T00:51:43;21.50;;;13.60;;
51523;SDS011;37610;51.790;21.590;2022-10-16T00:55:50;23.50;;;15.30;;
51523;SDS011;37610;51.790;21.590;2022-10-16T00:59:52;24.10;;;16.20;;
51523;SDS011;37610;51.790;21.590;2022-10-16T01:03:54;25.50;;;15.90;;
51523;SDS011;37610;51.790;21.590;2022-10-16T01:08:09;28.20;;;15.80;;
51523;SDS011;37610;51.790;21.590;2022-10-16T01:16:49;23.60;;;15.90;;
51523;SDS011;37610;51.790;21.590;2022-10-16T01:29:52;23.60;;;16.00;;
51523;SDS011;37610;51.790;21.590;2022-10-16T01:33:59;21.20;;;13.90;;
51523;SDS011;37610;51.790;21.590;2022-10-16T01:38:29;22.60;;;15.30;;
51523;SDS011;37610;51.790;21.590;2022-10-16T01:42:40;32.10;;;14.60;;
51523;SDS011;37610;51.790;21.590;2022-10-16T01:46:48;23.50;;;15.50;;
51523;SDS011;37610;51.790;21.590;2022-10-16T01:51:11;24.00;;;15.10;;
51523;SDS011;37610;51.790;21.590;2022-10-16T01:55:17;25.80;;;15.80;;
51523;SDS011;37610;51.790;21.590;2022-10-16T01:59:24;23.10;;;16.60;;
51523;SDS011;37610;51.790;21.590;2022-10-16T02:03:29;22.40;;;13.90;;
51523;SDS011;37610;51.790;21.590;2022-10-16T02:07:31;21.50;;;14.70;;
51523;SDS011;37610;51.790;21.590;2022-10-16T02:11:32;29.10;;;15.30;;
51523;SDS011;37610;51.790;21.590;2022-10-16T02:15:34;24.80;;;15.40;;
51523;SDS011;37610;51.790;21.590;2022-10-16T02:19:36;24.30;;;15.50;;
51523;SDS011;37610;51.790;21.590;2022-10-16T02:23:43;22.20;;;14.70;;
51523;SDS011;37610;51.790;21.590;2022-10-16T02:32:30;22.90;;;15.70;;
51523;SDS011;37610;51.790;21.590;2022-10-16T02:36:33;24.20;;;14.70;;
51523;SDS011;37610;51.790;21.590;2022-10-16T02:40:37;24.90;;;15.40;;
51523;SDS011;37610;51.790;21.590;2022-10-16T02:44:39;24.50;;;14.80;;
51523;SDS011;37610;51.790;21.590;2022-10-16T02:48:40;20.10;;;14.50;;
51523;SDS011;37610;51.790;21.590;2022-10-16T02:52:42;24.10;;;15.70;;
51523;SDS011;37610;51.790;21.590;2022-10-16T02:56:43;25.40;;;15.90;;
51523;SDS011;37610;51.790;21.590;2022-10-16T03:00:45;26.00;;;15.60;;
51523;SDS011;37610;51.790;21.590;2022-10-16T03:04:47;23.70;;;15.60;;
51523;SDS011;37610;51.790;21.590;2022-10-16T03:08:48;22.10;;;15.60;;
51523;SDS011;37610;51.790;21.590;2022-10-16T03:12:49;25.20;;;15.70;;
51523;SDS011;37610;51.790;21.590;2022-10-16T03:16:51;21.10;;;15.30;;
51523;SDS011;37610;51.790;21.590;2022-10-16T03:20:52;21.60;;;15.90;;
51523;SDS011;37610;51.790;21.590;2022-10-16T03:24:54;27.80;;;16.40;;
51523;SDS011;37610;51.790;21.590;2022-10-16T03:28:55;27.90;;;16.80;;
51523;SDS011;37610;51.790;21.590;2022-10-16T03:32:57;27.50;;;17.10;;
51523;SDS011;37610;51.790;21.590;2022-10-16T03:36:58;23.50;;;17.70;;
51523;SDS011;37610;51.790;21.590;2022-10-16T03:40:59;22.40;;;17.10;;
51523;SDS011;37610;51.790;21.590;2022-10-16T03:45:01;24.30;;;16.70;;
51523;SDS011;37610;51.790;21.590;2022-10-16T03:49:03;25.10;;;16.30;;
51523;SDS011;37610;51.790;21.590;2022-10-16T03:53:05;28.30;;;16.60;;
51523;SDS011;37610;51.790;21.590;2022-10-16T03:57:06;20.70;;;17.00;;
51523;SDS011;37610;51.790;21.590;2022-10-16T04:01:08;23.20;;;15.70;;
51523;SDS011;37610;51.790;21.590;2022-10-16T04:05:11;21.30;;;15.50;;
51523;SDS011;37610;51.790;21.590;2022-10-16T04:09:12;22.40;;;14.80;;
51523;SDS011;37610;51.790;21.590;2022-10-16T04:13:14;23.00;;;16.10;;
51523;SDS011;37610;51.790;21.590;2022-10-16T04:17:15;21.50;;;15.70;;
51523;SDS011;37610;51.790;21.590;2022-10-16T04:21:17;21.90;;;15.40;;
51523;SDS011;37610;51.790;21.590;2022-10-16T04:25:18;20.70;;;15.70;;
51523;SDS011;37610;51.790;21.590;2022-10-16T04:29:19;24.40;;;16.20;;
51523;SDS011;37610;51.790;21.590;2022-10-16T04:33:21;21.50;;;15.20;;
51523;SDS011;37610;51.790;21.590;2022-10-16T04:37:23;26.20;;;15.60;;
51523;SDS011;37610;51.790;21.590;2022-10-16T04:41:26;23.20;;;16.60;;
51523;SDS011;37610;51.790;21.590;2022-10-16T04:45:28;22.60;;;16.30;;
51523;SDS011;37610;51.790;21.590;2022-10-16T04:49:29;22.90;;;15.70;;
51523;SDS011;37610;51.790;21.590;2022-10-16T04:53:31;22.90;;;15.00;;
51523;SDS011;37610;51.790;21.590;2022-10-16T04:57:32;20.80;;;15.50;;
51523;SDS011;37610;51.790;21.590;2022-10-16T05:01:34;24.00;;;15.40;;
51523;SDS011;37610;51.790;21.590;2022-10-16T05:05:36;22.70;;;15.60;;
51523;SDS011;37610;51.790;21.590;2022-10-16T05:09:37;24.40;;;16.20;;
51523;SDS011;37610;51.790;21.590;2022-10-16T05:13:39;23.80;;;15.60;;
51523;SDS011;37610;51.790;21.590;2022-10-16T05:17:40;25.00;;;14.80;;
51523;SDS011;37610;51.790;21.590;2022-10-16T05:21:42;25.90;;;15.70;;
51523;SDS011;37610;51.790;21.590;2022-10-16T05:25:43;21.50;;;14.20;;
51523;SDS011;37610;51.790;21.590;2022-10-16T05:29:53;23.90;;;14.30;;
51523;SDS011;37610;51.790;21.590;2022-10-16T05:34:00;24.60;;;14.70;;
51523;SDS011;37610;51.790;21.590;2022-10-16T05:38:02;22.20;;;14.20;;
51523;SDS011;37610;51.790;21.590;2022-10-16T05:42:04;21.50;;;14.50;;
51523;SDS011;37610;51.790;21.590;2022-10-16T05:46:06;26.80;;;17.70;;
51523;SDS011;37610;51.790;21.590;2022-10-16T05:50:07;22.40;;;15.40;;
51523;SDS011;37610;51.790;21.590;2022-10-16T05:54:09;22.60;;;13.70;;
51523;SDS011;37610;51.790;21.590;2022-10-16T05:58:11;17.70;;;12.10;;
51523;SDS011;37610;51.790;21.590;2022-10-16T06:02:13;23.00;;;13.60;;
51523;SDS011;37610;51.790;21.590;2022-10-16T06:06:16;23.80;;;13.50;;
51523;SDS011;37610;51.790;21.590;2022-10-16T06:10:19;21.90;;;13.80;;
51523;SDS011;37610;51.790;21.590;2022-10-16T06:14:20;24.80;;;14.10;;
51523;SDS011;37610;51.790;21.590;2022-10-16T06:18:21;27.10;;;15.10;;
51523;SDS011;37610;51.790;21.590;2022-10-16T06:22:23;24.40;;;15.00;;
51523;SDS011;37610;51.790;21.590;2022-10-16T06:26:25;22.60;;;13.40;;
51523;SDS011;37610;51.790;21.590;2022-10-16T06:30:28;20.70;;;13.30;;
51523;SDS011;37610;51.790;21.590;2022-10-16T06:34:29;24.20;;;13.60;;
51523;SDS011;37610;51.790;21.590;2022-10-16T06:38:31;23.80;;;13.60;;
51523;SDS011;37610;51.790;21.590;2022-10-16T06:42:33;20.30;;;14.30;;
51523;SDS011;37610;51.790;21.590;2022-10-16T06:46:34;22.30;;;13.80;;
51523;SDS011;37610;51.790;21.590;2022-10-16T06:50:36;21.00;;;13.60;;
51523;SDS011;37610;51.790;21.590;2022-10-16T06:54:38;24.80;;;12.80;;
51523;SDS011;37610;51.790;21.590;2022-10-16T06:58:39;23.80;;;15.50;;
51523;SDS011;37610;51.790;21.590;2022-10-16T07:02:41;22.50;;;14.50;;
51523;SDS011;37610;51.790;21.590;2022-10-16T07:06:43;22.90;;;12.80;;
51523;SDS011;37610;51.790;21.590;2022-10-16T07:10:44;24.20;;;15.20;;
51523;SDS011;37610;51.790;21.590;2022-10-16T07:14:46;21.80;;;12.90;;
51523;SDS011;37610;51.790;21.590;2022-10-16T07:18:47;22.10;;;12.90;;
51523;SDS011;37610;51.790;21.590;2022-10-16T07:22:50;23.20;;;12.90;;
51523;SDS011;37610;51.790;21.590;2022-10-16T07:26:52;20.50;;;12.90;;
51523;SDS011;37610;51.790;21.590;2022-10-16T07:30:53;21.40;;;12.30;;
51523;SDS011;37610;51.790;21.590;2022-10-16T07:34:55;19.70;;;12.10;;
51523;SDS011;37610;51.790;21.590;2022-10-16T07:38:56;20.70;;;13.90;;
51523;SDS011;37610;51.790;21.590;2022-10-16T07:42:58;25.20;;;16.70;;
51523;SDS011;37610;51.790;21.590;2022-10-16T07:46:59;21.80;;;13.00;;
51523;SDS011;37610;51.790;21.590;2022-10-16T07:51:02;20.20;;;13.30;;
51523;SDS011;37610;51.790;21.590;2022-10-16T07:55:05;29.50;;;14.40;;
51523;SDS011;37610;51.790;21.590;2022-10-16T07:59:07;20.10;;;13.80;;
51523;SDS011;37610;51.790;21.590;2022-10-16T08:03:08;23.80;;;12.70;;
51523;SDS011;37610;51.790;21.590;2022-10-16T08:07:10;20.40;;;12.90;;
51523;SDS011;37610;51.790;21.590;2022-10-16T08:11:11;17.00;;;12.20;;
51523;SDS011;37610;51.790;21.590;2022-10-16T08:15:12;17.40;;;11.70;;
51523;SDS011;37610;51.790;21.590;2022-10-16T08:19:14;27.00;;;13.30;;
51523;SDS011;37610;51.790;21.590;2022-10-16T08:23:16;21.20;;;14.20;;
51523;SDS011;37610;51.790;21.590;2022-10-16T08:27:18;21.20;;;13.60;;
51523;SDS011;37610;51.790;21.590;2022-10-16T08:31:19;24.40;;;12.40;;
51523;SDS011;37610;51.790;21.590;2022-10-16T08:35:21;19.20;;;12.50;;
51523;SDS011;37610;51.790;21.590;2022-10-16T08:39:22;24.10;;;13.80;;
51523;SDS011;37610;51.790;21.590;2022-10-16T08:52:22;23.70;;;12.70;;
51523;SDS011;37610;51.790;21.590;2022-10-16T08:56:24;21.10;;;14.40;;
51523;SDS011;37610;51.790;21.590;2022-10-16T09:00:27;19.10;;;10.80;;
51523;SDS011;37610;51.790;21.590;2022-10-16T09:08:54;19.30;;;12.10;;
51523;SDS011;37610;51.790;21.590;2022-10-16T09:22:15;22.00;;;11.60;;
51523;SDS011;37610;51.790;21.590;2022-10-16T09:26:18;14.30;;;10.00;;
51523;SDS011;37610;51.790;21.590;2022-10-16T09:30:22;14.30;;;10.00;;
51523;SDS011;37610;51.790;21.590;2022-10-16T09:34:33;14.40;;;11.10;;
51523;SDS011;37610;51.790;21.590;2022-10-16T09:38:37;15.70;;;10.60;;
51523;SDS011;37610;51.790;21.590;2022-10-16T09:42:38;14.10;;;9.50;;
51523;SDS011;37610;51.790;21.590;2022-10-16T09:46:40;13.80;;;9.30;;
51523;SDS011;37610;51.790;21.590;2022-10-16T09:50:42;14.00;;;9.10;;
51523;SDS011;37610;51.790;21.590;2022-10-16T09:55:00;17.70;;;12.90;;
51523;SDS011;37610;51.790;21.590;2022-10-16T10:03:11;13.60;;;9.00;;
51523;SDS011;37610;51.790;21.590;2022-10-16T10:07:21;16.40;;;8.60;;
51523;SDS011;37610;51.790;21.590;2022-10-16T10:15:55;16.90;;;8.70;;
51523;SDS011;37610;51.790;21.590;2022-10-16T10:24:13;16.50;;;8.50;;
51523;SDS011;37610;51.790;21.590;2022-10-16T10:36:54;13.90;;;11.80;;
51523;SDS011;37610;51.790;21.590;2022-10-16T10:45:27;10.80;;;8.50;;
51523;SDS011;37610;51.790;21.590;2022-10-16T10:54:01;12.80;;;8.40;;
51523;SDS011;37610;51.790;21.590;2022-10-16T11:06:20;14.30;;;8.10;;
51523;SDS011;37610;51.790;21.590;2022-10-16T11:10:29;14.30;;;8.80;;
51523;SDS011;37610;51.790;21.590;2022-10-16T11:14:46;10.90;;;7.80;;
51523;SDS011;37610;51.790;21.590;2022-10-16T11:23:25;12.30;;;7.90;;
51523;SDS011;37610;51.790;21.590;2022-10-16T11:31:41;10.80;;;8.40;;
51523;SDS011;37610;51.790;21.590;2022-10-16T11:35:53;15.00;;;10.30;;
51523;SDS011;37610;51.790;21.590;2022-10-16T11:39:55;15.30;;;9.70;;
51523;SDS011;37610;51.790;21.590;2022-10-16T11:44:20;13.40;;;8.90;;
51523;SDS011;37610;51.790;21.590;2022-10-16T11:48:50;15.40;;;11.40;;
51523;SDS011;37610;51.790;21.590;2022-10-16T11:53:21;12.30;;;9.20;;
51523;SDS011;37610;51.790;21.590;2022-10-16T11:57:28;15.90;;;7.90;;
51523;SDS011;37610;51.790;21.590;2022-10-16T12:06:01;11.40;;;7.90;;
51523;SDS011;37610;51.790;21.590;2022-10-16T12:10:10;12.60;;;8.10;;
51523;SDS011;37610;51.790;21.590;2022-10-16T12:14:33;10.90;;;7.50;;
51523;SDS011;37610;51.790;21.590;2022-10-16T12:18:39;12.60;;;7.80;;
51523;SDS011;37610;51.790;21.590;2022-10-16T12:22:56;14.30;;;9.10;;
51523;SDS011;37610;51.790;21.590;2022-10-16T12:27:00;10.40;;;7.30;;
51523;SDS011;37610;51.790;21.590;2022-10-16T12:35:16;12.50;;;8.10;;
51523;SDS011;37610;51.790;21.590;2022-10-16T12:39:22;12.60;;;8.70;;
51523;SDS011;37610;51.790;21.590;2022-10-16T12:47:46;15.00;;;8.10;;
51523;SDS011;37610;51.790;21.590;2022-10-16T12:51:49;13.20;;;7.90;;
51523;SDS011;37610;51.790;21.590;2022-10-16T13:18:03;14.80;;;8.60;;
51523;SDS011;37610;51.790;21.590;2022-10-16T13:30:30;14.50;;;8.30;;
51523;SDS011;37610;51.790;21.590;2022-10-16T13:34:43;15.80;;;9.20;;
51523;SDS011;37610;51.790;21.590;2022-10-16T13:38:46;17.60;;;10.60;;
51523;SDS011;37610;51.790;21.590;2022-10-16T13:42:48;18.00;;;9.00;;
51523;SDS011;37610;51.790;21.590;2022-10-16T13:47:00;32.50;;;16.60;;
51523;SDS011;37610;51.790;21.590;2022-10-16T13:51:12;42.90;;;20.00;;
51523;SDS011;37610;51.790;21.590;2022-10-16T13:55:17;22.90;;;12.70;;
51523;SDS011;37610;51.790;21.590;2022-10-16T13:59:23;24.80;;;12.70;;
51523;SDS011;37610;51.790;21.590;2022-10-16T14:03:27;20.10;;;11.80;;
51523;SDS011;37610;51.790;21.590;2022-10-16T14:07:31;16.70;;;10.90;;
51523;SDS011;37610;51.790;21.590;2022-10-16T14:11:36;17.30;;;11.10;;
51523;SDS011;37610;51.790;21.590;2022-10-16T14:15:47;14.00;;;9.00;;
51523;SDS011;37610;51.790;21.590;2022-10-16T14:19:53;20.30;;;10.20;;
51523;SDS011;37610;51.790;21.590;2022-10-16T14:23:57;19.40;;;11.00;;
51523;SDS011;37610;51.790;21.590;2022-10-16T14:28:14;19.00;;;10.00;;
51523;SDS011;37610;51.790;21.590;2022-10-16T14:32:23;14.40;;;10.00;;
51523;SDS011;37610;51.790;21.590;2022-10-16T14:36:26;23.70;;;13.80;;
51523;SDS011;37610;51.790;21.590;2022-10-16T14:40:33;20.90;;;11.70;;
51523;SDS011;37610;51.790;21.590;2022-10-16T14:44:36;17.50;;;10.90;;
51523;SDS011;37610;51.790;21.590;2022-10-16T14:48:42;27.70;;;13.60;;
51523;SDS011;37610;51.790;21.590;2022-10-16T14:52:55;30.50;;;17.50;;
51523;SDS011;37610;51.790;21.590;2022-10-16T14:56:57;32.50;;;21.00;;
51523;SDS011;37610;51.790;21.590;2022-10-16T15:00:59;93.20;;;54.50;;
51523;SDS011;37610;51.790;21.590;2022-10-16T15:05:04;34.50;;;21.40;;
51523;SDS011;37610;51.790;21.590;2022-10-16T15:09:27;35.00;;;19.40;;
51523;SDS011;37610;51.790;21.590;2022-10-16T15:13:28;26.00;;;16.20;;
51523;SDS011;37610;51.790;21.590;2022-10-16T15:17:30;19.90;;;12.80;;
51523;SDS011;37610;51.790;21.590;2022-10-16T15:21:32;23.40;;;15.10;;
51523;SDS011;37610;51.790;21.590;2022-10-16T15:25:37;44.30;;;28.40;;
51523;SDS011;37610;51.790;21.590;2022-10-16T15:29:42;44.90;;;29.30;;
51523;SDS011;37610;51.790;21.590;2022-10-16T15:33:44;34.70;;;26.10;;
51523;SDS011;37610;51.790;21.590;2022-10-16T15:37:48;49.70;;;32.80;;
51523;SDS011;37610;51.790;21.590;2022-10-16T15:41:50;48.10;;;30.40;;
51523;SDS011;37610;51.790;21.590;2022-10-16T15:46:03;43.60;;;23.60;;
51523;SDS011;37610;51.790;21.590;2022-10-16T15:50:11;45.10;;;23.40;;
51523;SDS011;37610;51.790;21.590;2022-10-16T15:54:14;34.00;;;24.70;;
51523;SDS011;37610;51.790;21.590;2022-10-16T15:58:16;38.20;;;26.90;;
51523;SDS011;37610;51.790;21.590;2022-10-16T16:02:18;41.50;;;27.70;;
51523;SDS011;37610;51.790;21.590;2022-10-16T16:06:19;53.00;;;35.30;;
51523;SDS011;37610;51.790;21.590;2022-10-16T16:10:21;59.80;;;37.60;;
51523;SDS011;37610;51.790;21.590;2022-10-16T16:14:22;65.80;;;40.50;;
51523;SDS011;37610;51.790;21.590;2022-10-16T16:18:25;61.40;;;38.00;;
51523;SDS011;37610;51.790;21.590;2022-10-16T16:22:27;67.30;;;44.20;;
51523;SDS011;37610;51.790;21.590;2022-10-16T16:26:29;61.80;;;36.20;;
51523;SDS011;37610;51.790;21.590;2022-10-16T16:30:37;43.10;;;27.10;;
51523;SDS011;37610;51.790;21.590;2022-10-16T16:34:38;59.80;;;34.00;;
51523;SDS011;37610;51.790;21.590;2022-10-16T16:38:39;41.90;;;27.10;;
51523;SDS011;37610;51.790;21.590;2022-10-16T16:42:41;42.30;;;24.60;;
51523;SDS011;37610;51.790;21.590;2022-10-16T16:46:43;53.20;;;34.00;;
51523;SDS011;37610;51.790;21.590;2022-10-16T16:54:47;85.20;;;44.00;;
51523;SDS011;37610;51.790;21.590;2022-10-16T16:58:53;127.50;;;65.60;;
51523;SDS011;37610;51.790;21.590;2022-10-16T17:02:56;59.40;;;37.50;;
51523;SDS011;37610;51.790;21.590;2022-10-16T17:06:58;57.20;;;38.10;;
51523;SDS011;37610;51.790;21.590;2022-10-16T17:10:59;90.30;;;46.40;;
51523;SDS011;37610;51.790;21.590;2022-10-16T17:15:01;76.10;;;45.40;;
51523;SDS011;37610;51.790;21.590;2022-10-16T17:19:04;58.40;;;31.60;;
51523;SDS011;37610;51.790;21.590;2022-10-16T17:23:07;101.60;;;50.70;;
51523;SDS011;37610;51.790;21.590;2022-10-16T17:27:09;139.50;;;78.10;;
51523;SDS011;37610;51.790;21.590;2022-10-16T17:31:13;142.60;;;80.20;;
51523;SDS011;37610;51.790;21.590;2022-10-16T17:35:20;108.50;;;63.10;;
51523;SDS011;37610;51.790;21.590;2022-10-16T17:39:22;47.60;;;32.80;;
51523;SDS011;37610;51.790;21.590;2022-10-16T17:43:23;41.00;;;26.80;;
51523;SDS011;37610;51.790;21.590;2022-10-16T17:47:25;34.80;;;22.90;;
51523;SDS011;37610;51.790;21.590;2022-10-16T17:51:28;45.80;;;27.20;;
51523;SDS011;37610;51.790;21.590;2022-10-16T17:55:36;40.60;;;26.40;;
51523;SDS011;37610;51.790;21.590;2022-10-16T17:59:38;47.10;;;31.10;;
51523;SDS011;37610;51.790;21.590;2022-10-16T18:03:40;31.00;;;23.20;;
51523;SDS011;37610;51.790;21.590;2022-10-16T18:07:41;22.10;;;14.40;;
51523;SDS011;37610;51.790;21.590;2022-10-16T18:11:43;31.80;;;18.70;;
51523;SDS011;37610;51.790;21.590;2022-10-16T18:15:45;32.40;;;21.80;;
51523;SDS011;37610;51.790;21.590;2022-10-16T18:19:47;26.30;;;17.70;;
51523;SDS011;37610;51.790;21.590;2022-10-16T18:23:48;30.50;;;19.50;;
51523;SDS011;37610;51.790;21.590;2022-10-16T18:27:49;35.20;;;23.70;;
51523;SDS011;37610;51.790;21.590;2022-10-16T18:31:51;32.00;;;20.60;;
51523;SDS011;37610;51.790;21.590;2022-10-16T18:35:53;41.40;;;27.00;;
51523;SDS011;37610;51.790;21.590;2022-10-16T18:39:55;32.30;;;23.70;;
51523;SDS011;37610;51.790;21.590;2022-10-16T18:43:56;31.50;;;20.10;;
51523;SDS011;37610;51.790;21.590;2022-10-16T18:47:58;25.50;;;17.40;;
51523;SDS011;37610;51.790;21.590;2022-10-16T18:51:59;22.80;;;14.90;;
51523;SDS011;37610;51.790;21.590;2022-10-16T18:56:03;30.20;;;22.10;;
51523;SDS011;37610;51.790;21.590;2022-10-16T19:00:05;24.60;;;16.50;;
51523;SDS011;37610;51.790;21.590;2022-10-16T19:04:11;25.70;;;15.30;;
51523;SDS011;37610;51.790;21.590;2022-10-16T19:08:14;24.40;;;15.30;;
51523;SDS011;37610;51.790;21.590;2022-10-16T19:12:16;20.30;;;13.30;;
51523;SDS011;37610;51.790;21.590;2022-10-16T19:16:18;20.40;;;12.60;;
51523;SDS011;37610;51.790;21.590;2022-10-16T19:20:22;20.00;;;12.70;;
51523;SDS011;37610;51.790;21.590;2022-10-16T19:24:23;27.90;;;17.50;;
51523;SDS011;37610;51.790;21.590;2022-10-16T19:28:25;28.40;;;22.10;;
51523;SDS011;37610;51.790;21.590;2022-10-16T19:32:26;22.40;;;15.70;;
51523;SDS011;37610;51.790;21.590;2022-10-16T19:36:29;25.90;;;17.60;;
51523;SDS011;37610;51.790;21.590;2022-10-16T19:40:32;23.70;;;16.60;;
51523;SDS011;37610;51.790;21.590;2022-10-16T19:44:33;33.50;;;16.00;;
51523;SDS011;37610;51.790;21.590;2022-10-16T19:48:35;23.40;;;16.00;;
51523;SDS011;37610;51.790;21.590;2022-10-16T19:52:37;23.90;;;18.20;;
51523;SDS011;37610;51.790;21.590;2022-10-16T19:56:40;24.20;;;15.80;;
51523;SDS011;37610;51.790;21.590;2022-10-16T20:00:42;34.20;;;21.30;;
51523;SDS011;37610;51.790;21.590;2022-10-16T20:04:43;47.20;;;29.30;;
51523;SDS011;37610;51.790;21.590;2022-10-16T20:08:45;28.90;;;19.50;;
51523;SDS011;37610;51.790;21.590;2022-10-16T20:12:48;32.90;;;20.90;;
51523;SDS011;37610;51.790;21.590;2022-10-16T20:16:49;36.90;;;23.30;;
51523;SDS011;37610;51.790;21.590;2022-10-16T20:20:53;37.80;;;25.30;;
51523;SDS011;37610;51.790;21.590;2022-10-16T20:24:55;44.10;;;25.90;;
51523;SDS011;37610;51.790;21.590;2022-10-16T20:28:56;36.20;;;23.10;;
51523;SDS011;37610;51.790;21.590;2022-10-16T20:32:58;38.30;;;22.60;;
51523;SDS011;37610;51.790;21.590;2022-10-16T20:36:59;33.90;;;21.70;;
51523;SDS011;37610;51.790;21.590;2022-10-16T20:41:01;28.90;;;18.20;;
51523;SDS011;37610;51.790;21.590;2022-10-16T20:45:04;32.80;;;19.10;;
51523;SDS011;37610;51.790;21.590;2022-10-16T20:53:09;37.40;;;22.20;;
51523;SDS011;37610;51.790;21.590;2022-10-16T20:57:10;36.60;;;21.90;;
51523;SDS011;37610;51.790;21.590;2022-10-16T21:01:16;32.80;;;19.60;;
51523;SDS011;37610;51.790;21.590;2022-10-16T21:05:19;28.30;;;16.00;;
51523;SDS011;37610;51.790;21.590;2022-10-16T21:09:20;24.80;;;14.90;;
51523;SDS011;37610;51.790;21.590;2022-10-16T21:13:22;24.70;;;16.30;;
51523;SDS011;37610;51.790;21.590;2022-10-16T21:17:23;58.90;;;28.20;;
51523;SDS011;37610;51.790;21.590;2022-10-16T21:21:25;58.50;;;26.80;;
51523;SDS011;37610;51.790;21.590;2022-10-16T21:25:31;42.90;;;22.90;;
51523;SDS011;37610;51.790;21.590;2022-10-16T21:29:32;43.50;;;26.80;;
51523;SDS011;37610;51.790;21.590;2022-10-16T21:33:34;34.20;;;19.90;;
51523;SDS011;37610;51.790;21.590;2022-10-16T21:37:36;31.00;;;17.20;;
51523;SDS011;37610;51.790;21.590;2022-10-16T21:41:37;33.70;;;18.80;;
51523;SDS011;37610;51.790;21.590;2022-10-16T21:45:39;28.80;;;16.50;;
51523;SDS011;37610;51.790;21.590;2022-10-16T21:49:40;25.50;;;14.00;;
51523;SDS011;37610;51.790;21.590;2022-10-16T21:53:42;50.80;;;27.50;;
51523;SDS011;37610;51.790;21.590;2022-10-16T21:57:43;44.80;;;22.60;;
51523;SDS011;37610;51.790;21.590;2022-10-16T22:01:45;39.00;;;23.70;;
51523;SDS011;37610;51.790;21.590;2022-10-16T22:05:46;31.40;;;20.00;;
51523;SDS011;37610;51.790;21.590;2022-10-16T22:09:48;29.20;;;17.90;;
51523;SDS011;37610;51.790;21.590;2022-10-16T22:13:49;33.10;;;18.00;;
51523;SDS011;37610;51.790;21.590;2022-10-16T22:17:51;32.60;;;19.20;;
51523;SDS011;37610;51.790;21.590;2022-10-16T22:21:53;23.30;;;15.20;;
51523;SDS011;37610;51.790;21.590;2022-10-16T22:25:57;27.80;;;18.90;;
51523;SDS011;37610;51.790;21.590;2022-10-16T22:34:02;25.80;;;17.10;;
51523;SDS011;37610;51.790;21.590;2022-10-16T22:38:05;20.70;;;14.30;;
51523;SDS011;37610;51.790;21.590;2022-10-16T22:42:07;21.50;;;15.30;;
51523;SDS011;37610;51.790;21.590;2022-10-16T22:46:09;39.10;;;22.60;;
51523;SDS011;37610;51.790;21.590;2022-10-16T22:50:13;29.80;;;17.40;;
51523;SDS011;37610;51.790;21.590;2022-10-16T22:54:15;28.50;;;17.20;;
51523;SDS011;37610;51.790;21.590;2022-10-16T22:58:16;46.10;;;27.20;;
51523;SDS011;37610;51.790;21.590;2022-10-16T23:02:17;34.30;;;22.80;;
51523;SDS011;37610;51.790;21.590;2022-10-16T23:06:19;36.80;;;23.40;;
51523;SDS011;37610;51.790;21.590;2022-10-16T23:10:21;35.20;;;21.30;;
51523;SDS011;37610;51.790;21.590;2022-10-16T23:14:27;29.90;;;20.10;;
51523;SDS011;37610;51.790;21.590;2022-10-16T23:18:28;29.50;;;21.00;;
51523;SDS011;37610;51.790;21.590;2022-10-16T23:22:30;29.60;;;20.30;;
51523;SDS011;37610;51.790;21.590;2022-10-16T23:26:32;27.50;;;19.10;;
51523;SDS011;37610;51.790;21.590;2022-10-16T23:30:36;27.60;;;16.80;;
51523;SDS011;37610;51.790;21.590;2022-10-16T23:34:38;23.10;;;15.10;;
51523;SDS011;37610;51.790;21.590;2022-10-16T23:38:40;20.60;;;14.80;;
51523;SDS011;37610;51.790;21.590;2022-10-16T23:42:43;25.30;;;15.00;;
51523;SDS011;37610;51.790;21.590;2022-10-16T23:46:44;29.20;;;17.60;;
51523;SDS011;37610;51.790;21.590;2022-10-16T23:50:46;26.80;;;17.20;;
51523;SDS011;37610;51.790;21.590;2022-10-16T23:54:47;24.60;;;16.30;;
51523;SDS011;37610;51.790;21.590;2022-10-16T23:58:48;22.40;;;14.90;;
